createdAt,value
2023-05-21T00:02:01.346Z,7.80
2023-05-21T00:04:31.772Z,7.57
2023-05-21T00:06:59.853Z,6.70
2023-05-21T00:09:28.004Z,7.35
2023-05-21T00:11:56.212Z,7.25
2023-05-21T00:14:25.770Z,7.65
2023-05-21T00:16:53.966Z,7.25
2023-05-21T00:19:22.448Z,7.82
2023-05-21T00:21:50.629Z,7.47
2023-05-21T00:24:18.819Z,7.40
2023-05-21T00:26:46.982Z,6.88
2023-05-21T00:29:15.082Z,6.78
2023-05-21T00:31:44.726Z,7.85
2023-05-21T00:34:14.516Z,7.35
2023-05-21T00:36:45.573Z,7.78
2023-05-21T00:39:13.826Z,7.10
2023-05-21T00:41:43.213Z,7.50
2023-05-21T00:44:14.268Z,7.20
2023-05-21T00:46:44.747Z,7.22
2023-05-21T00:49:14.939Z,7.53
2023-05-21T00:51:45.379Z,7.60
2023-05-21T00:54:13.801Z,7.82
2023-05-21T00:56:42.773Z,7.07
2023-05-21T00:59:10.996Z,7.10
2023-05-21T01:01:39.290Z,7.18
2023-05-21T01:04:08.853Z,6.53
2023-05-21T01:06:37.897Z,6.55
2023-05-21T01:09:07.439Z,7.25
2023-05-21T01:11:41.113Z,7.40
2023-05-21T01:14:11.339Z,7.63
2023-05-21T01:16:42.441Z,8.30
2023-05-21T01:19:16.663Z,7.40
2023-05-21T01:21:47.986Z,6.88
2023-05-21T01:24:17.587Z,7.18
2023-05-21T01:26:46.803Z,7.43
2023-05-21T01:29:15.986Z,7.15
2023-05-21T01:31:55.601Z,6.95
2023-05-21T01:34:29.695Z,7.32
2023-05-21T01:37:03.626Z,7.07
2023-05-21T01:39:36.487Z,7.35
2023-05-21T01:42:07.317Z,7.50
2023-05-21T01:44:36.936Z,7.65
2023-05-21T01:47:06.639Z,7.72
2023-05-21T01:49:35.346Z,7.25
2023-05-21T01:52:04.027Z,7.50
2023-05-21T01:54:33.548Z,7.05
2023-05-21T01:57:01.810Z,7.85
2023-05-21T01:59:30.154Z,7.07
2023-05-21T02:01:58.331Z,7.60
2023-05-21T02:04:26.507Z,6.57
2023-05-21T02:06:55.004Z,7.63
2023-05-21T02:09:23.161Z,7.35
2023-05-21T02:11:52.702Z,7.88
2023-05-21T02:14:20.911Z,7.50
2023-05-21T02:16:48.995Z,7.60
2023-05-21T02:19:17.467Z,7.47
2023-05-21T02:21:46.128Z,6.88
2023-05-21T02:24:15.254Z,6.95
2023-05-21T02:26:43.583Z,7.07
2023-05-21T02:29:13.032Z,6.85
2023-05-21T02:31:41.364Z,7.55
2023-05-21T02:34:09.478Z,7.10
2023-05-21T02:36:37.631Z,7.13
2023-05-21T02:39:05.737Z,6.85
2023-05-21T02:41:33.826Z,6.65
2023-05-21T02:44:01.929Z,7.70
2023-05-21T02:46:31.406Z,6.53
2023-05-21T02:48:59.610Z,6.82
2023-05-21T02:51:27.782Z,7.10
2023-05-21T02:53:55.878Z,7.20
2023-05-21T02:56:24.968Z,6.45
2023-05-21T02:58:53.569Z,6.63
2023-05-21T03:01:21.793Z,6.78
2023-05-21T03:03:51.272Z,6.72
2023-05-21T03:06:20.801Z,6.18
2023-05-21T03:08:48.993Z,6.82
2023-05-21T03:11:17.175Z,6.25
2023-05-21T03:13:45.328Z,6.40
2023-05-21T03:16:14.290Z,6.68
2023-05-21T03:18:43.440Z,6.43
2023-05-21T03:21:13.445Z,6.47
2023-05-21T03:23:41.959Z,6.35
2023-05-21T03:26:10.258Z,6.30
2023-05-21T03:28:38.440Z,6.10
2023-05-21T03:31:06.650Z,6.68
2023-05-21T03:33:34.726Z,6.90
2023-05-21T03:36:02.841Z,6.35
2023-05-21T03:38:32.311Z,6.05
2023-05-21T03:41:00.417Z,6.25
2023-05-21T03:43:28.535Z,6.30
2023-05-21T03:45:56.850Z,6.13
2023-05-21T03:48:24.965Z,6.25
2023-05-21T03:50:53.104Z,5.78
2023-05-21T03:53:21.320Z,5.80
2023-05-21T03:55:55.406Z,5.82
2023-05-21T03:58:23.795Z,5.97
2023-05-21T04:00:51.995Z,5.95
2023-05-21T04:03:20.289Z,6.15
2023-05-21T04:05:48.825Z,5.80
2023-05-21T04:08:17.278Z,5.75
2023-05-21T04:10:45.628Z,5.95
2023-05-21T04:13:15.223Z,6.03
2023-05-21T04:15:44.559Z,6.00
2023-05-21T04:18:13.742Z,6.35
2023-05-21T04:20:41.972Z,5.93
2023-05-21T04:23:10.472Z,5.35
2023-05-21T04:25:39.023Z,5.40
2023-05-21T04:28:07.403Z,5.13
2023-05-21T04:30:36.891Z,5.85
2023-05-21T04:33:05.292Z,4.50
2023-05-21T04:35:33.491Z,5.45
2023-05-21T04:38:04.164Z,5.45
2023-05-21T04:40:32.910Z,4.95
2023-05-21T04:43:04.812Z,5.55
2023-05-21T04:45:32.930Z,5.03
2023-05-21T04:48:03.096Z,5.00
2023-05-21T04:50:31.837Z,5.20
2023-05-21T04:53:00.049Z,4.88
2023-05-21T04:55:29.054Z,5.68
2023-05-21T04:57:57.544Z,4.75
2023-05-21T05:00:27.908Z,5.20
2023-05-21T05:02:56.300Z,4.90
2023-05-21T05:05:25.884Z,5.25
2023-05-21T05:07:53.988Z,5.45
2023-05-21T05:10:22.088Z,5.13
2023-05-21T05:12:50.230Z,4.97
2023-05-21T05:15:18.385Z,5.05
2023-05-21T05:17:48.411Z,5.00
2023-05-21T05:20:16.720Z,4.57
2023-05-21T05:22:46.232Z,5.00
2023-05-21T05:25:14.370Z,5.05
2023-05-21T05:27:42.443Z,4.65
2023-05-21T05:30:11.318Z,4.93
2023-05-21T05:32:39.557Z,4.97
2023-05-21T05:35:09.130Z,4.75
2023-05-21T05:37:37.263Z,5.40
2023-05-21T05:40:08.391Z,4.22
2023-05-21T05:42:36.515Z,4.85
2023-05-21T05:45:04.894Z,5.20
2023-05-21T05:47:33.048Z,4.10
2023-05-21T05:50:01.321Z,4.45
2023-05-21T05:52:29.424Z,4.28
2023-05-21T05:54:57.675Z,4.15
2023-05-21T05:57:27.417Z,4.43
2023-05-21T05:59:56.459Z,4.43
2023-05-21T06:02:24.887Z,4.53
2023-05-21T06:04:53.228Z,4.38
2023-05-21T06:07:22.065Z,4.70
2023-05-21T06:09:50.149Z,4.88
2023-05-21T06:12:18.341Z,4.55
2023-05-21T06:14:49.198Z,5.00
2023-05-21T06:17:17.471Z,4.47
2023-05-21T06:19:46.212Z,4.45
2023-05-21T06:22:14.282Z,4.68
2023-05-21T06:24:42.447Z,4.82
2023-05-21T06:27:10.540Z,4.88
2023-05-21T06:29:38.713Z,4.90
2023-05-21T06:32:09.280Z,4.65
2023-05-21T06:34:37.437Z,4.25
2023-05-21T06:37:05.739Z,4.60
2023-05-21T06:39:33.890Z,4.47
2023-05-21T06:42:02.188Z,4.28
2023-05-21T06:44:30.478Z,4.68
2023-05-21T06:46:58.613Z,4.30
2023-05-21T06:49:28.464Z,4.90
2023-05-21T06:51:56.618Z,4.40
2023-05-21T06:54:26.805Z,4.40
2023-05-21T06:56:55.215Z,4.38
2023-05-21T06:59:23.487Z,4.40
2023-05-21T07:01:51.567Z,4.75
2023-05-21T07:04:19.695Z,4.18
2023-05-21T07:06:49.464Z,4.20
2023-05-21T07:09:18.392Z,4.22
2023-05-21T07:11:46.508Z,4.15
2023-05-21T07:14:14.585Z,4.10
2023-05-21T07:16:42.743Z,4.30
2023-05-21T07:19:28.416Z,4.20
2023-05-21T07:21:59.078Z,4.30
2023-05-21T07:24:27.867Z,4.25
2023-05-21T07:26:56.133Z,4.18
2023-05-21T07:29:24.267Z,4.32
2023-05-21T07:31:52.452Z,4.32
2023-05-21T07:34:20.684Z,5.00
2023-05-21T07:36:48.870Z,4.47
2023-05-21T07:39:18.674Z,4.18
2023-05-21T07:41:47.021Z,4.22
2023-05-21T07:44:15.255Z,4.00
2023-05-21T07:46:43.457Z,4.18
2023-05-21T07:49:16.876Z,4.13
2023-05-21T07:51:45.782Z,5.00
2023-05-21T07:54:13.955Z,4.57
2023-05-21T07:56:43.518Z,4.40
2023-05-21T07:59:13.369Z,4.35
2023-05-21T08:01:43.541Z,4.68
2023-05-21T08:04:11.969Z,4.90
2023-05-21T08:06:40.175Z,4.25
2023-05-21T08:09:08.424Z,4.43
2023-05-21T08:11:36.512Z,4.85
2023-05-21T08:14:06.104Z,4.30
2023-05-21T08:16:34.277Z,4.25
2023-05-21T08:19:02.410Z,4.88
2023-05-21T08:21:30.882Z,4.70
2023-05-21T08:24:00.441Z,4.18
2023-05-21T08:26:28.642Z,4.53
2023-05-21T08:28:56.921Z,4.65
2023-05-21T08:31:26.478Z,4.20
2023-05-21T08:33:56.574Z,4.22
2023-05-21T08:36:26.132Z,4.45
2023-05-21T08:38:54.347Z,4.40
2023-05-21T08:41:24.493Z,4.35
2023-05-21T08:43:57.914Z,4.20
2023-05-21T08:46:33.529Z,4.85
2023-05-21T08:49:04.514Z,4.68
2023-05-21T08:51:32.670Z,4.72
2023-05-21T08:54:02.997Z,4.70
2023-05-21T08:56:33.253Z,4.40
2023-05-21T08:59:03.022Z,4.47
2023-05-21T09:01:34.714Z,4.57
2023-05-21T09:04:18.939Z,3.97
2023-05-21T09:06:48.540Z,4.90
2023-05-21T09:09:26.190Z,4.32
2023-05-21T09:11:54.582Z,4.30
2023-05-21T09:14:24.551Z,4.60
2023-05-21T09:16:54.126Z,4.40
2023-05-21T09:19:22.533Z,4.47
2023-05-21T09:21:52.727Z,4.43
2023-05-21T09:24:23.890Z,4.25
2023-05-21T09:26:52.684Z,4.38
2023-05-21T09:29:20.935Z,4.50
2023-05-21T09:31:49.189Z,3.55
2023-05-21T09:34:18.783Z,4.20
2023-05-21T09:36:47.374Z,3.95
2023-05-21T09:39:29.053Z,4.07
2023-05-21T09:41:58.385Z,4.03
2023-05-21T09:44:26.694Z,3.85
2023-05-21T09:46:59.693Z,3.78
2023-05-21T09:49:29.320Z,4.03
2023-05-21T09:51:58.052Z,4.10
2023-05-21T09:54:26.291Z,3.92
2023-05-21T09:56:54.586Z,4.15
2023-05-21T09:59:23.107Z,3.70
2023-05-21T10:01:53.212Z,4.35
2023-05-21T10:04:23.133Z,3.90
2023-05-21T10:06:53.716Z,3.78
2023-05-21T10:09:22.535Z,4.15
2023-05-21T10:11:53.902Z,3.75
2023-05-21T10:14:22.765Z,3.78
2023-05-21T10:16:53.986Z,4.13
2023-05-21T10:19:26.980Z,3.95
2023-05-21T10:21:58.014Z,3.33
2023-05-21T10:24:26.962Z,4.25
2023-05-21T10:26:55.487Z,4.03
2023-05-21T10:29:25.244Z,4.10
2023-05-21T10:31:54.320Z,3.60
2023-05-21T10:34:24.654Z,4.50
2023-05-21T10:36:56.920Z,3.95
2023-05-21T10:39:27.427Z,4.13
2023-05-21T10:42:04.473Z,3.42
2023-05-21T10:44:42.107Z,3.88
2023-05-21T10:47:31.793Z,4.30
2023-05-21T10:50:16.268Z,4.10
2023-05-21T10:53:02.427Z,3.78
2023-05-21T10:55:44.268Z,3.75
2023-05-21T10:58:33.805Z,4.20
2023-05-21T11:01:03.842Z,3.55
2023-05-21T11:03:37.421Z,3.60
2023-05-21T11:06:06.672Z,3.40
2023-05-21T11:08:36.296Z,4.07
2023-05-21T11:11:06.266Z,3.70
2023-05-21T11:13:49.295Z,3.90
2023-05-21T11:16:18.367Z,3.70
2023-05-21T11:19:00.233Z,3.67
2023-05-21T11:21:31.962Z,3.42
2023-05-21T11:24:06.538Z,3.45
2023-05-21T11:27:05.777Z,3.92
2023-05-21T11:29:49.277Z,4.00
2023-05-21T11:32:20.773Z,3.55
2023-05-21T11:34:49.773Z,3.88
2023-05-21T11:37:27.856Z,4.20
2023-05-21T11:39:56.904Z,4.18
2023-05-21T11:42:36.541Z,3.70
2023-05-21T11:45:05.697Z,3.97
2023-05-21T11:47:34.200Z,4.20
2023-05-21T11:50:03.335Z,3.83
2023-05-21T11:52:33.152Z,3.60
2023-05-21T11:55:01.784Z,4.32
2023-05-21T11:57:32.033Z,4.32
2023-05-21T12:00:11.145Z,4.10
2023-05-21T12:02:39.341Z,4.28
2023-05-21T12:05:10.191Z,4.22
2023-05-21T12:07:38.684Z,4.65
2023-05-21T12:10:08.122Z,3.90
2023-05-21T12:12:49.886Z,3.75
2023-05-21T12:15:25.259Z,4.07
2023-05-21T12:17:53.987Z,3.70
2023-05-21T12:20:23.402Z,4.35
2023-05-21T12:22:51.578Z,3.88
2023-05-21T12:25:21.257Z,3.75
2023-05-21T12:27:52.800Z,4.50
2023-05-21T12:30:22.031Z,4.07
2023-05-21T12:32:52.812Z,4.40
2023-05-21T12:35:24.681Z,4.85
2023-05-21T12:40:22.475Z,4.57
2023-05-21T12:42:51.062Z,4.43
2023-05-21T12:45:21.158Z,4.47
2023-05-21T12:47:56.592Z,4.32
2023-05-21T12:50:25.084Z,4.53
2023-05-21T12:52:56.875Z,4.07
2023-05-21T12:55:26.842Z,4.80
2023-05-21T12:58:08.178Z,4.55
2023-05-21T13:00:36.943Z,4.03
2023-05-21T13:03:07.492Z,4.25
2023-05-21T13:05:35.911Z,4.20
2023-05-21T13:08:04.335Z,4.78
2023-05-21T13:10:32.513Z,4.10
2023-05-21T13:13:00.702Z,4.55
2023-05-21T13:15:28.995Z,4.07
2023-05-21T13:17:58.976Z,4.53
2023-05-21T13:20:28.532Z,4.28
2023-05-21T13:22:56.758Z,4.20
2023-05-21T13:25:29.054Z,4.50
2023-05-21T13:27:57.672Z,4.47
2023-05-21T13:30:25.769Z,4.15
2023-05-21T13:32:54.226Z,4.35
2023-05-21T13:35:22.756Z,4.22
2023-05-21T13:37:52.574Z,4.10
2023-05-21T13:40:21.192Z,4.63
2023-05-21T13:42:51.066Z,4.40
2023-05-21T13:45:20.968Z,4.18
2023-05-21T13:47:49.538Z,4.55
2023-05-21T13:50:18.030Z,4.70
2023-05-21T13:52:46.665Z,4.10
2023-05-21T13:55:16.956Z,3.83
2023-05-21T13:57:45.992Z,4.10
2023-05-21T14:00:16.273Z,4.10
2023-05-21T14:02:45.042Z,4.53
2023-05-21T14:05:14.010Z,4.18
2023-05-21T14:07:42.929Z,4.30
2023-05-21T14:10:11.867Z,4.20
2023-05-21T14:12:42.216Z,4.35
2023-05-21T14:15:11.067Z,4.28
2023-05-21T14:17:42.421Z,4.25
2023-05-21T14:20:11.593Z,4.10
2023-05-21T14:22:40.099Z,4.35
2023-05-21T14:25:08.917Z,4.53
2023-05-21T14:27:38.633Z,4.15
2023-05-21T14:30:09.591Z,4.20
2023-05-21T14:32:37.936Z,4.35
2023-05-21T14:35:07.032Z,4.13
2023-05-21T14:37:35.160Z,4.80
2023-05-21T14:40:03.448Z,4.22
2023-05-21T14:42:32.123Z,4.10
2023-05-21T14:45:10.856Z,4.55
2023-05-21T14:47:48.503Z,4.00
2023-05-21T14:50:17.740Z,4.93
2023-05-21T14:52:46.129Z,3.92
2023-05-21T14:55:16.999Z,4.07
2023-05-21T14:57:45.335Z,4.35
2023-05-21T15:00:14.328Z,4.22
2023-05-21T15:02:42.800Z,4.28
2023-05-21T15:05:12.505Z,4.30
2023-05-21T15:07:40.713Z,4.40
2023-05-21T15:10:10.250Z,4.22
2023-05-21T15:12:38.334Z,4.07
2023-05-21T15:15:07.584Z,4.50
2023-05-21T15:17:36.044Z,4.57
2023-05-21T15:20:04.800Z,4.28
2023-05-21T15:22:35.068Z,3.97
2023-05-21T15:25:03.713Z,4.10
2023-05-21T15:27:31.887Z,4.32
2023-05-21T15:30:00.427Z,4.53
2023-05-21T15:32:28.703Z,4.03
2023-05-21T15:34:56.889Z,4.43
2023-05-21T15:37:25.390Z,4.40
2023-05-21T15:39:54.942Z,4.20
2023-05-21T15:42:23.036Z,4.50
2023-05-21T15:44:51.231Z,4.20
2023-05-21T15:47:19.477Z,4.43
2023-05-21T15:49:47.732Z,4.07
2023-05-21T15:52:15.839Z,4.22
2023-05-21T15:54:43.952Z,3.72
2023-05-21T15:57:13.584Z,4.18
2023-05-21T15:59:41.734Z,4.63
2023-05-21T16:02:10.234Z,4.47
2023-05-21T16:04:38.407Z,4.03
2023-05-21T16:07:06.791Z,4.13
2023-05-21T16:09:35.542Z,4.35
2023-05-21T16:12:03.732Z,4.45
2023-05-21T16:14:33.215Z,4.45
2023-05-21T16:17:01.468Z,4.03
2023-05-21T16:19:30.403Z,4.05
2023-05-21T16:21:59.175Z,4.60
2023-05-21T16:24:27.369Z,4.15
2023-05-21T16:26:55.544Z,4.45
2023-05-21T16:29:23.697Z,5.00
2023-05-21T16:31:53.200Z,4.30
2023-05-21T16:34:21.384Z,4.05
2023-05-21T16:36:49.544Z,4.45
2023-05-21T16:39:17.674Z,4.10
2023-05-21T16:41:45.905Z,4.00
2023-05-21T16:44:14.138Z,4.55
2023-05-21T16:46:42.323Z,4.20
2023-05-21T16:49:11.853Z,3.95
2023-05-21T16:51:39.918Z,3.60
2023-05-21T16:54:08.089Z,4.45
2023-05-21T16:56:36.203Z,3.80
2023-05-21T16:59:04.279Z,4.38
2023-05-21T17:01:32.433Z,4.35
2023-05-21T17:04:00.703Z,4.10
2023-05-21T17:06:30.535Z,4.40
2023-05-21T17:08:58.656Z,3.95
2023-05-21T17:11:30.743Z,4.28
2023-05-21T17:13:58.886Z,4.10
2023-05-21T17:16:27.272Z,4.15
2023-05-21T17:18:55.471Z,4.07
2023-05-21T17:21:23.822Z,4.28
2023-05-21T17:23:53.472Z,4.40
2023-05-21T17:26:22.105Z,4.10
2023-05-21T17:28:50.190Z,4.35
2023-05-21T17:31:18.486Z,3.97
2023-05-21T17:33:46.766Z,4.30
2023-05-21T17:36:18.032Z,4.30
2023-05-21T17:38:46.131Z,4.53
2023-05-21T17:41:18.858Z,4.60
2023-05-21T17:43:47.214Z,4.45
2023-05-21T17:46:17.656Z,4.10
2023-05-21T17:48:45.887Z,4.60
2023-05-21T17:51:14.603Z,4.45
2023-05-21T17:53:45.443Z,4.15
2023-05-21T17:56:13.594Z,3.60
2023-05-21T17:58:43.197Z,4.25
2023-05-21T18:01:11.376Z,4.20
2023-05-21T18:03:39.681Z,4.10
2023-05-21T18:06:09.530Z,4.30
2023-05-21T18:08:38.038Z,4.60
2023-05-21T18:11:07.341Z,4.60
2023-05-21T18:13:35.635Z,4.85
2023-05-21T18:16:05.546Z,4.53
2023-05-21T18:18:34.047Z,5.38
2023-05-21T18:21:02.252Z,4.45
2023-05-21T18:23:31.406Z,4.70
2023-05-21T18:25:59.655Z,5.70
2023-05-21T18:28:29.527Z,5.45
2023-05-21T18:31:01.000Z,5.47
2023-05-21T18:33:31.203Z,5.57
2023-05-21T18:35:59.477Z,5.18
2023-05-21T18:38:27.603Z,5.95
2023-05-21T18:40:55.736Z,6.10
2023-05-21T18:43:23.850Z,6.13
2023-05-21T18:45:52.121Z,5.50
2023-05-21T18:48:20.304Z,5.70
2023-05-21T18:50:50.127Z,5.63
2023-05-21T18:53:18.585Z,5.45
2023-05-21T18:55:46.741Z,5.40
2023-05-21T18:58:14.932Z,4.97
2023-05-21T19:00:43.473Z,5.50
2023-05-21T19:03:11.711Z,5.28
2023-05-21T19:05:39.923Z,5.20
2023-05-21T19:08:09.598Z,4.70
2023-05-21T19:10:39.429Z,5.45
2023-05-21T19:13:08.249Z,5.50
2023-05-21T19:15:36.706Z,5.30
2023-05-21T19:18:05.002Z,6.00
2023-05-21T19:20:33.118Z,5.32
2023-05-21T19:23:01.492Z,5.03
2023-05-21T19:25:31.661Z,5.45
2023-05-21T19:28:05.784Z,5.38
2023-05-21T19:30:36.518Z,5.43
2023-05-21T19:33:05.284Z,5.18
2023-05-21T19:35:33.637Z,5.53
2023-05-21T19:38:04.118Z,5.60
2023-05-21T19:40:35.189Z,5.97
2023-05-21T19:43:03.969Z,5.70
2023-05-21T19:45:32.189Z,5.53
2023-05-21T19:48:00.806Z,5.20
2023-05-21T19:50:29.176Z,5.38
2023-05-21T19:52:58.309Z,5.50
2023-05-21T19:55:26.654Z,5.40
2023-05-21T19:57:56.262Z,5.72
2023-05-21T20:00:25.861Z,5.30
2023-05-21T20:02:56.134Z,5.18
2023-05-21T20:05:24.461Z,5.78
2023-05-21T20:07:52.973Z,5.72
2023-05-21T20:10:21.158Z,7.10
2023-05-21T20:12:49.245Z,7.25
2023-05-21T20:15:18.943Z,6.60
2023-05-21T20:17:50.522Z,6.95
2023-05-21T20:20:18.979Z,6.03
2023-05-21T20:22:47.265Z,6.18
2023-05-21T20:25:15.879Z,5.40
2023-05-21T20:27:44.237Z,6.07
2023-05-21T20:30:15.247Z,6.03
2023-05-21T20:32:45.180Z,6.55
2023-05-21T20:35:14.955Z,5.85
2023-05-21T20:37:43.116Z,5.53
2023-05-21T20:40:14.779Z,5.82
2023-05-21T20:42:45.217Z,4.97
2023-05-21T20:45:15.967Z,5.65
2023-05-21T20:47:45.743Z,5.20
2023-05-21T20:50:14.730Z,6.53
2023-05-21T20:52:45.519Z,6.13
2023-05-21T20:55:15.314Z,7.03
2023-05-21T20:57:43.417Z,6.68
2023-05-21T21:00:13.504Z,6.90
2023-05-21T21:02:42.037Z,6.15
2023-05-21T21:05:12.874Z,4.97
2023-05-21T21:07:42.206Z,5.47
2023-05-21T21:10:11.225Z,5.53
2023-05-21T21:12:39.769Z,6.00
2023-05-21T21:15:09.663Z,6.00
2023-05-21T21:17:38.254Z,5.47
2023-05-21T21:20:07.891Z,7.03
2023-05-21T21:22:37.498Z,7.00
2023-05-21T21:25:06.430Z,6.28
2023-05-21T21:27:34.879Z,6.93
2023-05-21T21:30:03.059Z,6.32
2023-05-21T21:32:31.164Z,6.20
2023-05-21T21:34:59.492Z,5.65
2023-05-21T21:37:29.558Z,6.80
2023-05-21T21:39:59.033Z,6.53
2023-05-21T21:42:27.210Z,6.30
2023-05-21T21:44:55.420Z,6.60
2023-05-21T21:47:23.586Z,5.55
2023-05-21T21:49:54.398Z,6.53
2023-05-21T21:52:22.704Z,6.57
2023-05-21T21:54:50.792Z,5.60
2023-05-21T21:57:20.295Z,5.70
2023-05-21T21:59:48.907Z,5.72
2023-05-21T22:02:18.397Z,5.13
2023-05-21T22:04:46.752Z,5.40
2023-05-21T22:07:17.158Z,5.78
2023-05-21T22:09:45.917Z,5.20
2023-05-21T22:12:14.610Z,5.28
2023-05-21T22:14:45.016Z,5.50
2023-05-21T22:17:14.124Z,6.05
2023-05-21T22:19:43.089Z,5.07
2023-05-21T22:22:12.212Z,4.65
2023-05-21T22:24:40.394Z,5.40
2023-05-21T22:27:08.537Z,4.50
2023-05-21T22:29:36.646Z,4.82
2023-05-21T22:32:06.633Z,4.60
2023-05-21T22:34:34.817Z,4.22
2023-05-21T22:37:02.912Z,4.72
2023-05-21T22:39:31.078Z,4.40
2023-05-21T22:41:59.665Z,4.80
2023-05-21T22:44:27.870Z,4.63
2023-05-21T22:47:00.368Z,4.38
2023-05-21T22:49:30.492Z,4.60
2023-05-21T22:51:59.493Z,4.55
2023-05-21T22:54:27.586Z,5.25
2023-05-21T22:56:55.718Z,4.53
2023-05-21T22:59:23.788Z,4.65
2023-05-21T23:01:57.188Z,5.07
2023-05-21T23:04:35.798Z,5.28
2023-05-21T23:07:12.634Z,5.00
2023-05-21T23:09:41.324Z,5.15
2023-05-21T23:12:11.079Z,5.22
2023-05-21T23:14:39.206Z,5.15
2023-05-21T23:17:07.696Z,5.13
2023-05-21T23:19:35.969Z,5.35
2023-05-21T23:22:04.147Z,5.43
2023-05-21T23:24:35.208Z,6.50
2023-05-21T23:27:03.752Z,5.45
2023-05-21T23:29:32.077Z,5.20
2023-05-21T23:32:01.172Z,5.88
2023-05-21T23:34:29.479Z,5.10
2023-05-21T23:36:59.429Z,5.85
2023-05-21T23:39:28.704Z,5.32
2023-05-21T23:41:58.272Z,5.30
2023-05-21T23:44:26.547Z,5.50
2023-05-21T23:46:54.672Z,4.97
2023-05-21T23:49:22.837Z,4.88
2023-05-21T23:51:51.108Z,4.60
2023-05-21T23:54:19.284Z,5.13
2023-05-21T23:56:47.624Z,4.95
2023-05-21T23:59:18.493Z,5.20
